createdAt,value
2023-01-26T00:02:16.759Z,99946.88
2023-01-26T00:04:49.967Z,99942.41
2023-01-26T00:07:21.683Z,99944.09
2023-01-26T00:09:53.399Z,99940.44
2023-01-26T00:12:25.533Z,99932.69
2023-01-26T00:14:57.200Z,99933.66
2023-01-26T00:17:31.609Z,99923.75
2023-01-26T00:20:06.541Z,99924.66
2023-01-26T00:22:38.264Z,99921.75
2023-01-26T00:25:10.775Z,99916.53
2023-01-26T00:27:43.793Z,99910.41
2023-01-26T00:30:18.291Z,99907.25
2023-01-26T00:32:50.394Z,99904.44
2023-01-26T00:35:22.008Z,99904.16
2023-01-26T00:37:54.932Z,99902.38
2023-01-26T00:40:26.689Z,99902.56
2023-01-26T00:42:59.786Z,99899.88
2023-01-26T00:45:31.789Z,99895.16
2023-01-26T00:48:03.489Z,99907.06
2023-01-26T00:50:37.117Z,99898.28
2023-01-26T00:53:10.461Z,99895.56
2023-01-26T00:55:42.239Z,99890.03
2023-01-26T00:58:16.928Z,99890.47
2023-01-26T01:00:48.582Z,99895.91
2023-01-26T01:03:20.293Z,99899.34
2023-01-26T01:05:52.803Z,99896.94
2023-01-26T01:08:27.521Z,99894.84
2023-01-26T01:11:10.971Z,99890.28
2023-01-26T01:13:42.998Z,99895.91
2023-01-26T01:16:16.639Z,99896.53
2023-01-26T01:18:56.137Z,99887.69
2023-01-26T01:21:27.880Z,99892.06
2023-01-26T01:24:00.497Z,99899.03
2023-01-26T01:26:33.044Z,99895.69
2023-01-26T01:29:05.478Z,99899.03
2023-01-26T01:31:37.346Z,99897.06
2023-01-26T01:34:12.274Z,99897.88
2023-01-26T01:36:45.141Z,99895.19
2023-01-26T01:39:19.558Z,99900.59
2023-01-26T01:41:51.216Z,99894.44
2023-01-26T01:44:24.942Z,99890.16
2023-01-26T01:47:04.126Z,99893.72
2023-01-26T01:49:45.653Z,99885.16
2023-01-26T01:52:21.219Z,99884.34
2023-01-26T01:54:59.708Z,99874.75
2023-01-26T01:57:46.580Z,99875.06
2023-01-26T02:00:21.213Z,99860.13
2023-01-26T02:03:19.029Z,99860.25
2023-01-26T02:06:14.746Z,99861.50
2023-01-26T02:08:49.558Z,99857.94
2023-01-26T02:11:30.718Z,99857.22
2023-01-26T02:14:27.485Z,99851.09
2023-01-26T02:16:59.426Z,99843.13
2023-01-26T02:20:03.187Z,99846.91
2023-01-26T02:22:51.629Z,99844.41
2023-01-26T02:25:36.999Z,99848.06
2023-01-26T02:28:08.942Z,99842.63
2023-01-26T02:30:43.493Z,99847.22
2023-01-26T02:33:29.710Z,99844.72
2023-01-26T02:36:06.388Z,99840.34
2023-01-26T02:38:53.302Z,99837.13
2023-01-26T02:41:46.927Z,99840.25
2023-01-26T02:44:19.867Z,99836.97
2023-01-26T02:46:53.099Z,99836.47
2023-01-26T02:49:44.322Z,99831.38
2023-01-26T02:52:19.126Z,99829.47
2023-01-26T02:55:13.989Z,99827.63
2023-01-26T02:57:46.473Z,99820.22
2023-01-26T03:00:24.613Z,99818.31
2023-01-26T03:03:00.665Z,99815.84
2023-01-26T03:05:32.395Z,99811.75
2023-01-26T03:08:06.124Z,99803.34
2023-01-26T03:10:41.213Z,99811.47
2023-01-26T03:13:12.955Z,99804.91
2023-01-26T03:15:47.982Z,99809.47
2023-01-26T03:18:40.451Z,99800.81
2023-01-26T03:21:33.282Z,99805.31
2023-01-26T03:24:23.646Z,99797.59
2023-01-26T03:27:20.713Z,99790.22
2023-01-26T03:29:53.137Z,99791.03
2023-01-26T03:32:25.490Z,99788.31
2023-01-26T03:34:57.564Z,99784.69
2023-01-26T03:37:36.879Z,99770.72
2023-01-26T03:40:37.398Z,99776.34
2023-01-26T03:43:28.466Z,99769.28
2023-01-26T03:46:22.105Z,99776.97
2023-01-26T03:49:13.068Z,99769.03
2023-01-26T03:52:03.401Z,99769.13
2023-01-26T03:54:53.604Z,99769.03
2023-01-26T03:57:25.295Z,99781.88
2023-01-26T03:59:56.961Z,99770.06
2023-01-26T04:02:50.722Z,99766.75
2023-01-26T04:05:42.135Z,99769.56
2023-01-26T04:08:23.749Z,99756.53
2023-01-26T04:11:00.861Z,99761.53
2023-01-26T04:13:52.369Z,99764.16
2023-01-26T04:16:48.327Z,99756.44
2023-01-26T04:19:39.196Z,99760.72
2023-01-26T04:22:14.589Z,99762.56
2023-01-26T04:24:47.524Z,99764.34
2023-01-26T04:27:21.323Z,99764.06
2023-01-26T04:29:53.091Z,99764.25
2023-01-26T04:32:24.918Z,99764.34
2023-01-26T04:34:56.987Z,99769.78
2023-01-26T04:37:35.869Z,99766.94
2023-01-26T04:40:09.959Z,99760.72
2023-01-26T04:42:42.812Z,99758.94
2023-01-26T04:45:15.758Z,99752.16
2023-01-26T04:47:50.884Z,99754.88
2023-01-26T04:50:23.181Z,99744.75
2023-01-26T04:52:55.833Z,99744.88
2023-01-26T04:55:27.474Z,99745.41
2023-01-26T04:57:59.245Z,99744.16
2023-01-26T05:00:31.566Z,99743.84
2023-01-26T05:03:04.662Z,99741.03
2023-01-26T05:05:37.800Z,99735.00
2023-01-26T05:08:13.488Z,99737.47
2023-01-26T05:10:45.906Z,99736.00
2023-01-26T05:13:27.719Z,99740.91
2023-01-26T05:16:28.541Z,99741.53
2023-01-26T05:19:26.143Z,99736.53
2023-01-26T05:22:16.107Z,99749.56
2023-01-26T05:25:08.381Z,99751.53
2023-01-26T05:27:52.812Z,99739.53
2023-01-26T05:30:24.564Z,99732.88
2023-01-26T05:33:10.217Z,99739.16
2023-01-26T05:35:43.777Z,99736.66
2023-01-26T05:38:16.189Z,99735.81
2023-01-26T05:40:49.493Z,99738.41
2023-01-26T05:43:27.514Z,99737.56
2023-01-26T05:46:34.315Z,99737.47
2023-01-26T05:49:07.375Z,99742.47
2023-01-26T05:51:39.821Z,99734.88
2023-01-26T05:54:12.405Z,99737.69
2023-01-26T05:56:44.871Z,99736.75
2023-01-26T05:59:18.260Z,99733.72
2023-01-26T06:01:51.342Z,99736.22
2023-01-26T06:04:23.526Z,99736.94
2023-01-26T06:07:00.619Z,99731.88
2023-01-26T06:09:42.156Z,99726.66
2023-01-26T06:12:38.647Z,99724.56
2023-01-26T06:15:33.748Z,99726.84
2023-01-26T06:18:05.647Z,99735.47
2023-01-26T06:20:41.473Z,99724.97
2023-01-26T06:23:16.447Z,99718.19
2023-01-26T06:25:51.819Z,99722.97
2023-01-26T06:28:26.837Z,99728.94
2023-01-26T06:31:06.482Z,99726.41
2023-01-26T06:33:39.037Z,99727.25
2023-01-26T06:36:15.796Z,99723.72
2023-01-26T06:38:54.949Z,99720.59
2023-01-26T06:41:28.055Z,99725.59
2023-01-26T06:44:01.055Z,99721.13
2023-01-26T06:46:32.778Z,99710.81
2023-01-26T06:49:09.794Z,99716.13
2023-01-26T06:51:50.549Z,99711.63
2023-01-26T06:54:23.358Z,99711.72
2023-01-26T06:57:24.557Z,99719.66
2023-01-26T07:00:17.580Z,99715.19
2023-01-26T07:03:01.494Z,99719.25
2023-01-26T07:05:33.229Z,99718.00
2023-01-26T07:08:07.581Z,99709.25
2023-01-26T07:10:39.357Z,99715.91
2023-01-26T07:13:11.111Z,99713.09
2023-01-26T07:15:42.811Z,99711.63
2023-01-26T07:18:14.540Z,99716.13
2023-01-26T07:20:46.202Z,99705.41
2023-01-26T07:23:17.840Z,99705.09
2023-01-26T07:25:49.558Z,99700.50
2023-01-26T07:28:21.241Z,99704.16
2023-01-26T07:30:57.267Z,99713.84
2023-01-26T07:33:29.728Z,99715.69
2023-01-26T07:36:02.225Z,99713.63
2023-01-26T07:38:34.565Z,99712.56
2023-01-26T07:41:09.341Z,99718.53
2023-01-26T07:43:42.557Z,99720.28
2023-01-26T07:46:14.572Z,99720.19
2023-01-26T07:48:47.339Z,99719.66
2023-01-26T07:51:21.819Z,99718.63
2023-01-26T07:53:53.706Z,99717.25
2023-01-26T07:56:25.673Z,99720.72
2023-01-26T07:58:57.826Z,99717.25
2023-01-26T08:01:30.453Z,99718.72
2023-01-26T08:04:02.099Z,99718.38
2023-01-26T08:06:33.737Z,99711.22
2023-01-26T08:09:05.515Z,99713.00
2023-01-26T08:11:37.428Z,99716.22
2023-01-26T08:14:11.894Z,99711.63
2023-01-26T08:16:45.487Z,99708.09
2023-01-26T08:19:17.286Z,99700.16
2023-01-26T08:21:48.881Z,99706.84
2023-01-26T08:24:20.592Z,99706.84
2023-01-26T08:26:52.343Z,99702.56
2023-01-26T08:29:24.065Z,99695.78
2023-01-26T08:31:58.968Z,99700.47
2023-01-26T08:34:30.621Z,99694.84
2023-01-26T08:37:03.875Z,99694.94
2023-01-26T08:39:35.619Z,99692.47
2023-01-26T08:42:07.330Z,99694.94
2023-01-26T08:44:39.276Z,99699.94
2023-01-26T08:47:13.904Z,99701.41
2023-01-26T08:49:45.644Z,99707.13
2023-01-26T08:52:17.527Z,99701.50
2023-01-26T08:54:51.299Z,99701.81
2023-01-26T08:57:23.114Z,99695.69
2023-01-26T08:59:57.714Z,99700.88
2023-01-26T09:02:29.591Z,99705.06
2023-01-26T09:05:01.325Z,99704.00
2023-01-26T09:07:32.995Z,99708.28
2023-01-26T09:10:09.967Z,99708.06
2023-01-26T09:12:41.944Z,99710.66
2023-01-26T09:15:13.700Z,99708.19
2023-01-26T09:17:49.236Z,99712.22
2023-01-26T09:20:23.586Z,99702.63
2023-01-26T09:22:55.272Z,99706.69
2023-01-26T09:25:26.936Z,99699.00
2023-01-26T09:27:58.669Z,99696.41
2023-01-26T09:30:30.727Z,99689.38
2023-01-26T09:33:06.025Z,99702.41
2023-01-26T09:35:40.492Z,99693.66
2023-01-26T09:38:12.199Z,99705.31
2023-01-26T09:41:08.131Z,99699.06
2023-01-26T09:43:58.558Z,99694.50
2023-01-26T09:46:57.122Z,99693.31
2023-01-26T09:50:01.458Z,99680.63
2023-01-26T09:52:39.408Z,99683.38
2023-01-26T09:55:20.221Z,99686.69
2023-01-26T09:58:01.169Z,99682.91
2023-01-26T10:00:39.338Z,99685.22
2023-01-26T10:03:14.474Z,99681.13
2023-01-26T10:05:54.388Z,99674.19
2023-01-26T10:09:25.231Z,99680.63
2023-01-26T10:12:01.679Z,99674.38
2023-01-26T10:14:45.030Z,99677.00
2023-01-26T10:17:23.930Z,99681.47
2023-01-26T10:20:02.870Z,99680.84
2023-01-26T10:22:52.561Z,99671.88
2023-01-26T10:25:37.424Z,99665.72
2023-01-26T10:28:26.122Z,99667.16
2023-01-26T10:30:59.293Z,99667.25
2023-01-26T10:33:36.999Z,99663.41
2023-01-26T10:36:12.549Z,99669.56
2023-01-26T10:38:45.828Z,99671.34
2023-01-26T10:41:28.975Z,99672.31
2023-01-26T10:44:09.738Z,99670.75
2023-01-26T10:46:42.746Z,99672.63
2023-01-26T10:49:17.690Z,99677.41
2023-01-26T10:52:07.140Z,99669.69
2023-01-26T10:54:39.685Z,99663.31
2023-01-26T10:57:32.572Z,99665.00
2023-01-26T11:00:29.105Z,99662.94
2023-01-26T11:03:18.697Z,99662.94
2023-01-26T11:06:07.101Z,99664.31
2023-01-26T11:08:39.837Z,99662.41
2023-01-26T11:11:27.023Z,99660.09
2023-01-26T11:14:19.301Z,99658.78
2023-01-26T11:16:59.272Z,99660.13
2023-01-26T11:19:43.117Z,99653.25
2023-01-26T11:22:45.314Z,99659.72
2023-01-26T11:25:40.316Z,99658.94
2023-01-26T11:28:20.884Z,99649.50
2023-01-26T11:30:59.509Z,99648.31
2023-01-26T11:33:50.457Z,99645.03
2023-01-26T11:36:37.508Z,99634.91
2023-01-26T11:39:21.637Z,99631.88
2023-01-26T11:42:25.735Z,99634.81
2023-01-26T11:45:19.659Z,99641.06
2023-01-26T11:48:13.816Z,99642.38
2023-01-26T11:50:54.345Z,99637.19
2023-01-26T11:53:41.273Z,99635.97
2023-01-26T11:56:37.505Z,99638.69
2023-01-26T11:59:21.974Z,99630.03
2023-01-26T12:02:05.651Z,99630.25
2023-01-26T12:04:45.446Z,99627.34
2023-01-26T12:07:30.244Z,99636.28
2023-01-26T12:10:04.952Z,99619.81
2023-01-26T12:12:40.355Z,99620.47
2023-01-26T12:15:29.063Z,99613.47
2023-01-26T12:18:09.965Z,99612.31
2023-01-26T12:21:11.888Z,99603.47
2023-01-26T12:24:02.528Z,99603.28
2023-01-26T12:26:40.304Z,99598.84
2023-01-26T12:29:41.691Z,99589.16
2023-01-26T12:32:16.937Z,99592.75
2023-01-26T12:34:49.012Z,99587.94
2023-01-26T12:37:26.557Z,99594.69
2023-01-26T12:40:24.061Z,99589.25
2023-01-26T12:43:06.223Z,99581.34
2023-01-26T12:45:45.766Z,99579.66
2023-01-26T12:48:25.749Z,99579.28
2023-01-26T12:51:04.763Z,99574.19
2023-01-26T12:53:48.368Z,99577.63
2023-01-26T12:56:30.390Z,99582.63
2023-01-26T12:59:23.220Z,99586.16
2023-01-26T13:02:28.001Z,99578.06
2023-01-26T13:05:01.716Z,99579.13
2023-01-26T13:07:35.042Z,99583.94
2023-01-26T13:10:17.642Z,99578.53
2023-01-26T13:13:01.435Z,99574.16
2023-01-26T13:15:33.299Z,99570.03
2023-01-26T13:18:05.044Z,99571.28
2023-01-26T13:21:08.586Z,99575.53
2023-01-26T13:23:43.285Z,99567.78
2023-01-26T13:26:21.559Z,99564.56
2023-01-26T13:29:25.380Z,99561.13
2023-01-26T13:32:17.303Z,99565.47
2023-01-26T13:34:59.761Z,99567.66
2023-01-26T13:37:34.833Z,99563.38
2023-01-26T13:40:31.312Z,99554.88
2023-01-26T13:43:40.295Z,99562.88
2023-01-26T13:46:22.064Z,99559.44
2023-01-26T13:48:56.080Z,99561.75
2023-01-26T13:51:35.912Z,99553.09
2023-01-26T13:54:16.195Z,99552.97
2023-01-26T13:57:24.247Z,99549.63
2023-01-26T14:00:02.483Z,99554.44
2023-01-26T14:02:38.847Z,99558.56
2023-01-26T14:05:22.555Z,99552.09
2023-01-26T14:07:54.383Z,99546.69
2023-01-26T14:10:27.936Z,99554.75
2023-01-26T14:13:04.211Z,99547.91
2023-01-26T14:15:35.890Z,99547.28
2023-01-26T14:18:22.141Z,99546.25
2023-01-26T14:21:05.642Z,99546.25
2023-01-26T14:23:37.386Z,99553.72
2023-01-26T14:26:21.871Z,99549.44
2023-01-26T14:28:53.577Z,99548.31
2023-01-26T14:31:27.384Z,99552.72
2023-01-26T14:34:02.445Z,99550.06
2023-01-26T14:36:39.187Z,99550.59
2023-01-26T14:39:18.385Z,99549.75
2023-01-26T14:41:52.282Z,99558.41
2023-01-26T14:44:23.967Z,99548.94
2023-01-26T14:47:06.250Z,99558.94
2023-01-26T14:50:02.656Z,99562.72
2023-01-26T14:52:40.581Z,99558.53
2023-01-26T14:55:28.164Z,99559.59
2023-01-26T14:58:03.777Z,99566.16
2023-01-26T15:00:37.002Z,99565.72
2023-01-26T15:03:30.444Z,99557.38
2023-01-26T15:06:05.205Z,99554.34
2023-01-26T15:08:40.872Z,99555.25
2023-01-26T15:11:31.905Z,99557.19
2023-01-26T15:14:03.801Z,99557.00
2023-01-26T15:16:53.648Z,99557.31
2023-01-26T15:19:32.010Z,99555.66
2023-01-26T15:22:20.556Z,99559.69
2023-01-26T15:25:05.432Z,99558.97
2023-01-26T15:27:37.357Z,99565.13
2023-01-26T15:30:17.501Z,99556.19
2023-01-26T15:32:49.686Z,99560.69
2023-01-26T15:35:28.453Z,99561.91
2023-01-26T15:38:11.836Z,99556.88
2023-01-26T15:40:43.572Z,99559.38
2023-01-26T15:43:16.192Z,99556.41
2023-01-26T15:45:58.804Z,99555.78
2023-01-26T15:48:34.281Z,99559.09
2023-01-26T15:51:13.771Z,99559.81
2023-01-26T15:53:45.501Z,99558.63
2023-01-26T15:56:17.240Z,99561.25
2023-01-26T15:58:48.968Z,99565.63
2023-01-26T16:01:23.606Z,99563.75
2023-01-26T16:03:55.289Z,99564.88
2023-01-26T16:06:31.547Z,99563.69
2023-01-26T16:09:03.598Z,99568.06
2023-01-26T16:11:41.391Z,99566.41
2023-01-26T16:14:13.581Z,99567.63
2023-01-26T16:16:45.497Z,99565.47
2023-01-26T16:19:34.374Z,99558.00
2023-01-26T16:22:11.748Z,99569.94
2023-01-26T16:24:43.825Z,99571.13
2023-01-26T16:27:15.524Z,99563.66
2023-01-26T16:29:47.201Z,99561.88
2023-01-26T16:32:29.445Z,99561.53
2023-01-26T16:35:01.083Z,99557.88
2023-01-26T16:37:32.860Z,99562.97
2023-01-26T16:40:05.617Z,99568.31
2023-01-26T16:42:40.657Z,99570.78
2023-01-26T16:45:20.481Z,99560.03
2023-01-26T16:47:55.647Z,99562.31
2023-01-26T16:50:27.340Z,99561.13
2023-01-26T16:52:59.521Z,99560.63
2023-01-26T16:55:31.130Z,99561.78
2023-01-26T16:58:02.824Z,99563.84
2023-01-26T17:00:34.945Z,99568.97
2023-01-26T17:03:09.330Z,99568.66
2023-01-26T17:05:41.440Z,99570.09
2023-01-26T17:08:13.266Z,99572.69
2023-01-26T17:11:00.601Z,99569.25
2023-01-26T17:13:33.126Z,99572.34
2023-01-26T17:16:05.194Z,99571.56
2023-01-26T17:18:38.938Z,99577.84
2023-01-26T17:21:14.402Z,99570.97
2023-01-26T17:23:51.137Z,99570.22
2023-01-26T17:26:23.501Z,99565.94
2023-01-26T17:28:56.577Z,99570.47
2023-01-26T17:31:31.706Z,99575.34
2023-01-26T17:34:03.405Z,99573.13
2023-01-26T17:36:35.902Z,99570.38
2023-01-26T17:39:09.854Z,99573.56
2023-01-26T17:41:41.484Z,99567.13
2023-01-26T17:44:14.460Z,99579.19
2023-01-26T17:46:48.881Z,99575.16
2023-01-26T17:49:21.606Z,99562.31
2023-01-26T17:51:53.370Z,99566.34
2023-01-26T17:54:31.268Z,99571.06
2023-01-26T17:57:03.002Z,99577.22
2023-01-26T17:59:34.771Z,99578.66
2023-01-26T18:02:07.021Z,99576.78
2023-01-26T18:04:40.357Z,99571.28
2023-01-26T18:07:15.106Z,99578.03
2023-01-26T18:09:47.651Z,99573.75
2023-01-26T18:12:19.365Z,99584.19
2023-01-26T18:14:55.208Z,99575.44
2023-01-26T18:17:26.989Z,99580.16
2023-01-26T18:19:58.701Z,99578.03
2023-01-26T18:22:30.819Z,99580.59
2023-01-26T18:25:02.539Z,99576.22
2023-01-26T18:27:34.242Z,99578.97
2023-01-26T18:30:06.620Z,99585.41
2023-01-26T18:32:39.088Z,99587.72
2023-01-26T18:35:11.235Z,99584.19
2023-01-26T18:37:43.080Z,99575.53
2023-01-26T18:40:15.340Z,99580.97
2023-01-26T18:42:54.195Z,99580.97
2023-01-26T18:45:25.956Z,99584.44
2023-01-26T18:47:58.766Z,99572.78
2023-01-26T18:50:30.429Z,99586.56
2023-01-26T18:53:03.507Z,99576.75
2023-01-26T18:55:37.593Z,99572.69
2023-01-26T18:58:12.146Z,99572.09
2023-01-26T19:00:43.873Z,99573.66
2023-01-26T19:03:18.147Z,99577.50
2023-01-26T19:05:50.735Z,99577.75
2023-01-26T19:08:25.439Z,99577.41
2023-01-26T19:10:57.677Z,99585.31
2023-01-26T19:13:29.383Z,99579.84
2023-01-26T19:16:01.232Z,99577.84
2023-01-26T19:18:32.890Z,99580.13
2023-01-26T19:21:05.656Z,99575.97
2023-01-26T19:23:42.627Z,99579.50
2023-01-26T19:26:19.986Z,99575.44
2023-01-26T19:28:52.275Z,99573.25
2023-01-26T19:31:27.606Z,99577.66
2023-01-26T19:34:01.571Z,99578.88
2023-01-26T19:36:40.133Z,99574.81
2023-01-26T19:39:13.671Z,99581.50
2023-01-26T19:41:46.343Z,99578.91
2023-01-26T19:44:18.195Z,99578.91
2023-01-26T19:46:51.445Z,99576.00
2023-01-26T19:49:25.903Z,99578.16
2023-01-26T19:51:57.642Z,99579.41
2023-01-26T19:54:29.310Z,99576.59
2023-01-26T19:57:01.002Z,99581.88
2023-01-26T19:59:32.673Z,99582.53
2023-01-26T20:02:04.434Z,99577.22
2023-01-26T20:04:36.145Z,99577.75
2023-01-26T20:07:08.992Z,99579.34
2023-01-26T20:09:40.695Z,99582.03
2023-01-26T20:12:12.433Z,99580.47
2023-01-26T20:14:44.223Z,99577.84
2023-01-26T20:17:18.300Z,99577.03
2023-01-26T20:19:50.294Z,99579.44
2023-01-26T20:22:24.107Z,99583.56
2023-01-26T20:24:55.809Z,99587.84
2023-01-26T20:27:29.404Z,99585.06
2023-01-26T20:30:01.221Z,99580.34
2023-01-26T20:32:34.359Z,99585.84
2023-01-26T20:35:08.699Z,99589.50
2023-01-26T20:37:40.507Z,99593.88
2023-01-26T20:40:13.022Z,99588.16
2023-01-26T20:42:46.205Z,99594.81
2023-01-26T20:45:18.415Z,99593.13
2023-01-26T20:47:50.175Z,99595.13
2023-01-26T20:50:22.194Z,99590.63
2023-01-26T20:52:53.870Z,99590.97
2023-01-26T20:55:25.506Z,99593.47
2023-01-26T20:57:57.158Z,99592.22
2023-01-26T21:00:31.091Z,99588.59
2023-01-26T21:03:06.631Z,99592.34
2023-01-26T21:05:38.328Z,99585.88
2023-01-26T21:08:10.829Z,99585.78
2023-01-26T21:10:48.973Z,99584.94
2023-01-26T21:13:21.347Z,99588.47
2023-01-26T21:15:53.186Z,99586.06
2023-01-26T21:18:24.917Z,99590.25
2023-01-26T21:21:03.481Z,99583.78
2023-01-26T21:23:35.460Z,99583.06
2023-01-26T21:26:13.021Z,99582.44
2023-01-26T21:28:45.371Z,99579.63
2023-01-26T21:31:17.118Z,99581.00
2023-01-26T21:33:51.541Z,99587.22
2023-01-26T21:36:26.143Z,99584.41
2023-01-26T21:39:00.154Z,99590.03
2023-01-26T21:41:52.081Z,99589.41
2023-01-26T21:44:53.684Z,99584.31
2023-01-26T21:47:25.367Z,99587.03
2023-01-26T21:49:59.354Z,99583.69
2023-01-26T21:52:49.524Z,99585.53
2023-01-26T21:55:21.174Z,99578.28
2023-01-26T21:58:12.139Z,99585.34
2023-01-26T22:00:43.831Z,99578.38
2023-01-26T22:03:15.520Z,99588.84
2023-01-26T22:05:56.869Z,99578.47
2023-01-26T22:08:28.693Z,99580.75
2023-01-26T22:11:01.724Z,99575.13
2023-01-26T22:13:35.860Z,99579.94
2023-01-26T22:16:08.884Z,99582.44
2023-01-26T22:18:40.679Z,99579.53
2023-01-26T22:21:15.523Z,99582.63
2023-01-26T22:23:47.370Z,99583.25
2023-01-26T22:26:24.134Z,99584.50
2023-01-26T22:28:57.625Z,99577.47
2023-01-26T22:31:30.519Z,99584.81
2023-01-26T22:34:02.541Z,99586.50
2023-01-26T22:36:34.326Z,99582.00
2023-01-26T22:39:06.179Z,99579.94
2023-01-26T22:41:38.078Z,99574.94
2023-01-26T22:44:12.631Z,99573.25
2023-01-26T22:46:44.329Z,99566.81
2023-01-26T22:49:16.108Z,99562.13
2023-01-26T22:51:47.818Z,99563.41
2023-01-26T22:54:19.464Z,99559.34
2023-01-26T22:56:51.153Z,99562.88
2023-01-26T22:59:22.913Z,99559.34
2023-01-26T23:01:57.530Z,99556.66
2023-01-26T23:04:29.258Z,99554.66
2023-01-26T23:07:01.829Z,99556.13
2023-01-26T23:09:33.542Z,99558.72
2023-01-26T23:12:07.286Z,99557.34
2023-01-26T23:14:39.003Z,99558.59
2023-01-26T23:17:11.459Z,99563.09
2023-01-26T23:19:45.792Z,99554.56
2023-01-26T23:22:17.518Z,99557.91
2023-01-26T23:25:09.201Z,99556.41
2023-01-26T23:27:40.846Z,99558.81
2023-01-26T23:30:13.097Z,99562.44
2023-01-26T23:32:44.985Z,99565.97
2023-01-26T23:35:17.838Z,99556.31
2023-01-26T23:37:51.511Z,99562.34
2023-01-26T23:40:24.282Z,99563.72
2023-01-26T23:43:10.565Z,99566.72
2023-01-26T23:46:43.861Z,99571.94
2023-01-26T23:49:15.647Z,99573.88
2023-01-26T23:51:47.252Z,99572.44
2023-01-26T23:54:18.928Z,99566.41
2023-01-26T23:56:50.669Z,99573.78
2023-01-26T23:59:22.357Z,99575.94
